createdAt,value
2023-03-14T00:01:54.567Z,11.93
2023-03-14T00:04:21.107Z,11.93
2023-03-14T00:06:47.964Z,13.73
2023-03-14T00:09:14.864Z,15.25
2023-03-14T00:11:41.452Z,9.70
2023-03-14T00:14:08.141Z,13.20
2023-03-14T00:16:34.767Z,12.20
2023-03-14T00:19:01.722Z,11.02
2023-03-14T00:21:29.775Z,12.60
2023-03-14T00:23:56.334Z,11.57
2023-03-14T00:26:41.289Z,12.98
2023-03-14T00:29:08.030Z,12.18
2023-03-14T00:31:36.620Z,13.65
2023-03-14T00:34:03.225Z,12.68
2023-03-14T00:36:29.778Z,11.45
2023-03-14T00:38:56.339Z,12.15
2023-03-14T00:44:11.591Z,11.50
2023-03-14T00:46:39.623Z,11.32
2023-03-14T00:49:07.228Z,13.30
2023-03-14T00:51:33.820Z,12.15
2023-03-14T00:54:01.340Z,13.43
2023-03-14T00:57:05.681Z,12.27
2023-03-14T00:59:47.686Z,12.45
2023-03-14T01:02:19.404Z,13.15
2023-03-14T01:04:48.992Z,13.95
2023-03-14T01:07:16.141Z,13.05
2023-03-14T01:09:42.717Z,11.52
2023-03-14T01:12:09.248Z,14.38
2023-03-14T01:17:04.615Z,12.48
2023-03-14T01:19:31.254Z,12.43
2023-03-14T01:21:57.815Z,14.10
2023-03-14T01:24:24.358Z,13.80
2023-03-14T01:26:50.934Z,11.45
2023-03-14T01:29:17.473Z,11.98
2023-03-14T01:31:44.412Z,12.37
2023-03-14T01:34:11.248Z,12.85
2023-03-14T01:36:38.015Z,12.80
2023-03-14T01:39:07.020Z,14.20
2023-03-14T01:41:33.618Z,16.02
2023-03-14T01:44:00.370Z,18.83
2023-03-14T01:46:39.497Z,14.93
2023-03-14T01:49:29.712Z,15.70
2023-03-14T01:52:11.654Z,15.93
2023-03-14T01:54:42.928Z,14.52
2023-03-14T01:57:20.990Z,12.23
2023-03-14T02:00:12.430Z,15.20
2023-03-14T02:02:43.176Z,14.30
2023-03-14T02:05:11.469Z,14.05
2023-03-14T02:07:46.703Z,16.73
2023-03-14T02:10:15.512Z,15.23
2023-03-14T02:12:42.264Z,16.12
2023-03-14T02:15:09.458Z,11.98
2023-03-14T02:17:36.708Z,14.65
2023-03-14T02:20:24.477Z,14.48
2023-03-14T02:22:51.190Z,16.80
2023-03-14T02:26:02.381Z,13.38
2023-03-14T02:28:29.037Z,15.10
2023-03-14T02:33:31.732Z,12.57
2023-03-14T02:36:05.497Z,11.85
2023-03-14T02:38:37.831Z,17.12
2023-03-14T02:41:04.577Z,14.73
2023-03-14T02:43:31.130Z,13.95
2023-03-14T02:46:57.774Z,13.25
2023-03-14T02:49:26.069Z,13.88
2023-03-14T02:51:52.615Z,12.70
2023-03-14T02:54:21.506Z,13.93
2023-03-14T02:56:48.050Z,14.48
2023-03-14T02:59:14.682Z,15.45
2023-03-14T03:01:41.355Z,12.55
2023-03-14T03:04:07.975Z,13.95
2023-03-14T03:06:34.538Z,12.68
2023-03-14T03:09:01.521Z,12.25
2023-03-14T03:11:28.131Z,12.52
2023-03-14T03:13:54.702Z,14.57
2023-03-14T03:16:21.282Z,12.60
2023-03-14T03:18:47.863Z,11.88
2023-03-14T03:21:14.433Z,12.77
2023-03-14T03:24:02.600Z,12.85
2023-03-14T03:26:29.198Z,12.60
2023-03-14T03:28:55.812Z,12.55
2023-03-14T03:31:22.379Z,11.55
2023-03-14T03:33:48.942Z,12.85
2023-03-14T03:36:15.531Z,14.87
2023-03-14T03:41:17.415Z,14.32
2023-03-14T03:43:43.974Z,12.80
2023-03-14T03:46:10.634Z,13.90
2023-03-14T03:48:37.678Z,12.23
2023-03-14T03:51:04.554Z,13.77
2023-03-14T03:53:33.973Z,11.60
2023-03-14T03:56:28.691Z,13.40
2023-03-14T03:59:07.473Z,12.85
2023-03-14T04:01:34.070Z,13.68
2023-03-14T04:04:00.798Z,12.23
2023-03-14T04:06:27.612Z,14.25
2023-03-14T04:08:55.137Z,12.45
2023-03-14T04:11:21.698Z,12.05
2023-03-14T04:14:04.982Z,12.43
2023-03-14T04:19:02.637Z,12.23
2023-03-14T04:21:29.387Z,13.00
2023-03-14T04:24:08.208Z,11.25
2023-03-14T04:27:02.723Z,12.93
2023-03-14T04:29:34.364Z,14.10
2023-03-14T04:32:00.885Z,11.48
2023-03-14T04:34:27.410Z,11.25
2023-03-14T04:36:54.017Z,11.00
2023-03-14T04:39:20.598Z,11.68
2023-03-14T04:41:47.211Z,12.73
2023-03-14T04:44:13.742Z,13.25
2023-03-14T04:46:40.370Z,12.13
2023-03-14T04:49:07.037Z,12.63
2023-03-14T04:51:33.655Z,14.98
2023-03-14T04:54:00.202Z,12.30
2023-03-14T04:56:31.569Z,12.55
2023-03-14T04:58:58.090Z,13.70
2023-03-14T05:01:24.725Z,13.85
2023-03-14T05:03:51.486Z,12.05
2023-03-14T05:06:18.095Z,11.77
2023-03-14T05:08:45.914Z,11.48
2023-03-14T05:11:13.750Z,12.32
2023-03-14T05:13:40.723Z,13.00
2023-03-14T05:16:09.950Z,16.98
2023-03-14T05:18:36.776Z,14.77
2023-03-14T05:21:03.935Z,12.90
2023-03-14T05:23:30.953Z,14.07
2023-03-14T05:25:57.594Z,12.13
2023-03-14T05:28:48.524Z,12.18
2023-03-14T05:31:37.443Z,13.35
2023-03-14T05:34:04.036Z,11.82
2023-03-14T05:36:30.922Z,13.27
2023-03-14T05:38:57.492Z,12.73
2023-03-14T05:41:24.072Z,11.73
2023-03-14T05:43:50.713Z,14.10
2023-03-14T05:46:17.379Z,10.80
2023-03-14T05:48:43.996Z,11.02
2023-03-14T05:51:10.592Z,9.57
2023-03-14T05:53:37.196Z,12.23
2023-03-14T05:56:06.277Z,11.07
2023-03-14T05:58:32.854Z,10.77
2023-03-14T06:01:03.443Z,10.77
2023-03-14T06:03:34.345Z,9.10
2023-03-14T06:06:02.393Z,11.12
2023-03-14T06:08:29.665Z,10.70
2023-03-14T06:10:58.160Z,13.05
2023-03-14T06:13:24.736Z,12.65
2023-03-14T06:15:51.520Z,12.60
2023-03-14T06:18:18.057Z,12.13
2023-03-14T06:20:44.606Z,10.32
2023-03-14T06:41:27.761Z,11.38
2023-03-14T06:43:56.213Z,11.02
2023-03-14T06:46:23.703Z,13.57
2023-03-14T06:48:50.538Z,13.25
2023-03-14T06:51:17.150Z,12.35
2023-03-14T06:53:43.888Z,11.75
2023-03-14T06:58:58.766Z,14.30
2023-03-14T07:01:28.758Z,13.80
2023-03-14T07:03:55.751Z,16.05
2023-03-14T07:06:23.003Z,11.12
2023-03-14T07:08:49.556Z,11.82
2023-03-14T07:11:16.160Z,10.20
2023-03-14T07:13:43.946Z,12.27
2023-03-14T07:16:11.821Z,11.77
2023-03-14T07:18:38.741Z,12.35
2023-03-14T07:21:13.216Z,12.07
2023-03-14T07:23:39.875Z,13.20
2023-03-14T07:26:06.811Z,10.00
2023-03-14T07:28:33.380Z,15.65
2023-03-14T07:31:20.183Z,9.98
2023-03-14T07:33:46.813Z,10.23
2023-03-14T07:36:13.528Z,10.55
2023-03-14T07:38:40.094Z,12.25
2023-03-14T07:41:07.364Z,13.30
2023-03-14T07:43:37.008Z,10.55
2023-03-14T07:46:03.663Z,13.35
2023-03-14T07:48:30.293Z,10.27
2023-03-14T07:50:57.375Z,12.73
2023-03-14T07:53:25.006Z,11.50
2023-03-14T07:55:55.307Z,10.43
2023-03-14T07:58:25.352Z,14.60
2023-03-14T08:01:01.049Z,10.40
2023-03-14T08:03:32.801Z,13.70
2023-03-14T08:05:59.631Z,10.88
2023-03-14T08:08:26.202Z,11.43
2023-03-14T08:10:52.760Z,15.15
2023-03-14T08:13:19.908Z,13.18
2023-03-14T08:16:01.716Z,12.70
2023-03-14T08:18:28.355Z,13.95
2023-03-14T08:20:54.917Z,11.93
2023-03-14T08:23:21.551Z,11.65
2023-03-14T08:25:51.311Z,14.30
2023-03-14T08:28:24.231Z,10.88
2023-03-14T08:33:17.385Z,10.85
2023-03-14T08:35:44.029Z,8.48
2023-03-14T08:38:10.747Z,12.40
2023-03-14T08:40:46.155Z,10.60
2023-03-14T08:43:21.559Z,9.18
2023-03-14T08:45:48.142Z,9.73
2023-03-14T08:48:14.717Z,11.82
2023-03-14T08:50:41.650Z,12.23
2023-03-14T08:53:08.282Z,11.63
2023-03-14T08:55:34.927Z,11.95
2023-03-14T08:58:01.459Z,10.35
2023-03-14T09:00:28.034Z,9.20
2023-03-14T09:02:54.596Z,12.30
2023-03-14T09:05:21.366Z,10.35
2023-03-14T09:07:47.965Z,12.30
2023-03-14T09:10:23.476Z,7.80
2023-03-14T09:13:11.318Z,8.93
2023-03-14T09:15:37.872Z,7.82
2023-03-14T09:18:04.460Z,10.25
2023-03-14T09:20:32.233Z,15.52
2023-03-14T09:22:58.761Z,9.85
2023-03-14T09:25:25.319Z,15.52
2023-03-14T09:27:51.849Z,8.77
2023-03-14T09:30:18.574Z,10.38
2023-03-14T09:32:45.252Z,12.07
2023-03-14T09:35:11.804Z,9.82
2023-03-14T09:37:38.428Z,9.25
2023-03-14T09:40:13.090Z,9.70
2023-03-14T09:42:41.266Z,9.88
2023-03-14T09:45:18.468Z,17.52
2023-03-14T09:47:58.528Z,10.50
2023-03-14T09:50:45.100Z,12.65
2023-03-14T09:53:18.953Z,9.32
2023-03-14T09:55:49.519Z,8.35
2023-03-14T09:58:24.215Z,11.02
2023-03-14T10:00:55.351Z,6.87
2023-03-14T10:03:35.081Z,13.60
2023-03-14T10:06:02.373Z,4.95
2023-03-14T10:08:29.034Z,1.60
2023-03-14T10:10:56.035Z,2.78
2023-03-14T10:13:30.342Z,5.12
2023-03-14T10:16:11.780Z,3.95
2023-03-14T10:19:10.278Z,6.95
2023-03-14T10:21:42.549Z,5.18
2023-03-14T10:24:34.986Z,4.12
2023-03-14T10:27:05.169Z,2.57
2023-03-14T10:29:33.503Z,4.87
2023-03-14T10:32:01.901Z,2.83
2023-03-14T10:34:38.117Z,3.08
2023-03-14T10:37:23.404Z,5.72
2023-03-14T10:39:52.697Z,9.90
2023-03-14T10:42:24.975Z,4.78
2023-03-14T10:45:01.129Z,6.75
2023-03-14T10:47:32.034Z,1.37
2023-03-14T10:50:31.739Z,2.47
2023-03-14T10:53:18.666Z,1.98
2023-03-14T10:55:46.686Z,3.42
2023-03-14T10:58:30.441Z,2.47
2023-03-14T11:01:10.715Z,6.40
2023-03-14T11:03:39.350Z,2.65
2023-03-14T11:06:28.713Z,4.32
2023-03-14T11:09:07.685Z,3.60
2023-03-14T11:11:34.353Z,4.37
2023-03-14T11:14:34.593Z,4.85
2023-03-14T11:17:08.431Z,2.47
2023-03-14T11:20:02.952Z,3.22
2023-03-14T11:22:36.774Z,1.70
2023-03-14T11:25:31.086Z,2.45
2023-03-14T11:28:03.444Z,1.80
2023-03-14T11:30:48.849Z,3.25
2023-03-14T11:33:16.957Z,5.55
2023-03-14T11:35:43.531Z,3.12
2023-03-14T11:46:42.416Z,2.17
2023-03-14T11:49:17.922Z,2.40
2023-03-14T11:51:48.157Z,2.97
2023-03-14T11:55:23.807Z,2.92
2023-03-14T11:58:35.552Z,2.78
2023-03-14T12:01:10.753Z,2.67
2023-03-14T12:03:46.564Z,1.48
2023-03-14T12:06:37.992Z,2.80
2023-03-14T12:09:06.582Z,3.40
2023-03-14T12:11:49.965Z,3.17
2023-03-14T12:14:27.240Z,2.45
2023-03-14T12:17:15.354Z,2.50
2023-03-14T12:19:42.589Z,3.33
2023-03-14T12:22:11.955Z,2.62
2023-03-14T12:24:50.574Z,2.67
2023-03-14T12:27:51.962Z,3.08
2023-03-14T12:30:41.041Z,1.65
2023-03-14T12:33:10.764Z,4.80
2023-03-14T12:35:46.445Z,2.25
2023-03-14T12:38:37.902Z,1.98
2023-03-14T12:41:16.248Z,4.10
2023-03-14T13:04:49.359Z,2.60
2023-03-14T13:07:34.346Z,3.85
2023-03-14T13:13:04.090Z,5.22
2023-03-14T13:15:43.510Z,3.83
2023-03-14T13:18:35.185Z,1.90
2023-03-14T13:21:15.063Z,3.85
2023-03-14T13:23:41.670Z,1.85
2023-03-14T13:26:16.223Z,4.10
2023-03-14T13:29:01.286Z,3.10
2023-03-14T13:31:45.854Z,2.62
2023-03-14T13:34:13.136Z,3.50
2023-03-14T13:36:39.796Z,1.83
2023-03-14T13:39:20.587Z,1.90
2023-03-14T13:41:47.872Z,4.97
2023-03-14T13:44:36.044Z,5.45
2023-03-14T13:49:39.379Z,2.78
2023-03-14T13:52:37.888Z,4.28
2023-03-14T13:55:06.502Z,3.45
2023-03-14T13:57:56.828Z,2.33
2023-03-14T14:00:38.751Z,7.22
2023-03-14T14:03:05.356Z,2.62
2023-03-14T14:05:33.053Z,2.53
2023-03-14T14:07:59.878Z,4.37
2023-03-14T14:10:38.395Z,4.80
2023-03-14T14:13:09.867Z,3.47
2023-03-14T14:18:33.909Z,2.47
2023-03-14T14:21:00.936Z,3.78
2023-03-14T14:23:30.084Z,3.87
2023-03-14T14:26:08.059Z,4.53
2023-03-14T14:29:31.028Z,3.33
2023-03-14T14:32:11.950Z,3.78
2023-03-14T14:34:56.715Z,3.60
2023-03-14T14:37:27.981Z,3.12
2023-03-14T14:40:00.521Z,4.37
2023-03-14T14:42:31.930Z,4.72
2023-03-14T14:45:00.844Z,5.62
2023-03-14T14:47:29.244Z,4.22
2023-03-14T14:50:00.064Z,7.47
2023-03-14T14:52:41.096Z,6.30
2023-03-14T14:55:18.806Z,6.32
2023-03-14T14:57:54.690Z,11.63
2023-03-14T15:00:51.220Z,5.18
2023-03-14T15:03:18.013Z,7.55
2023-03-14T15:05:44.691Z,5.80
2023-03-14T15:08:12.251Z,5.65
2023-03-14T15:10:39.224Z,8.07
2023-03-14T15:13:05.857Z,5.80
2023-03-14T15:18:18.784Z,6.22
2023-03-14T15:20:48.829Z,8.15
2023-03-14T15:23:18.116Z,7.72
2023-03-14T15:25:55.553Z,9.93
2023-03-14T15:28:28.602Z,5.15
2023-03-14T15:31:04.657Z,5.75
2023-03-14T15:33:55.446Z,5.07
2023-03-14T15:36:32.530Z,6.00
2023-03-14T15:39:02.477Z,5.20
2023-03-14T15:41:29.161Z,5.05
2023-03-14T15:43:56.717Z,7.53
2023-03-14T15:46:24.302Z,7.35
2023-03-14T15:48:52.477Z,6.97
2023-03-14T17:58:22.003Z,3.55
2023-03-14T18:00:48.695Z,4.60
2023-03-14T18:03:15.345Z,6.45
